sensor_id;sensor_type;location;lat;lon;timestamp;P1;durP1;ratioP1;P2;durP2;ratioP2
49139;SDS011;34959;49.310;8.646;2023-06-01T00:02:01;1.85;;;1.40;;
49139;SDS011;34959;49.310;8.646;2023-06-01T00:04:27;2.20;;;1.48;;
49139;SDS011;34959;49.310;8.646;2023-06-01T00:06:52;2.00;;;1.30;;
49139;SDS011;34959;49.310;8.646;2023-06-01T00:09:17;2.55;;;1.58;;
49139;SDS011;34959;49.310;8.646;2023-06-01T00:11:43;3.35;;;1.40;;
49139;SDS011;34959;49.310;8.646;2023-06-01T00:14:08;2.97;;;1.45;;
49139;SDS011;34959;49.310;8.646;2023-06-01T00:16:34;2.38;;;1.50;;
49139;SDS011;34959;49.310;8.646;2023-06-01T00:18:59;2.72;;;1.40;;
49139;SDS011;34959;49.310;8.646;2023-06-01T00:21:29;1.98;;;1.20;;
49139;SDS011;34959;49.310;8.646;2023-06-01T00:23:57;2.95;;;1.38;;
49139;SDS011;34959;49.310;8.646;2023-06-01T00:26:22;4.60;;;1.60;;
49139;SDS011;34959;49.310;8.646;2023-06-01T00:28:48;3.35;;;1.52;;
49139;SDS011;34959;49.310;8.646;2023-06-01T00:31:13;2.47;;;1.50;;
49139;SDS011;34959;49.310;8.646;2023-06-01T00:33:39;2.45;;;1.30;;
49139;SDS011;34959;49.310;8.646;2023-06-01T00:36:04;2.78;;;1.67;;
49139;SDS011;34959;49.310;8.646;2023-06-01T00:38:30;2.53;;;1.50;;
49139;SDS011;34959;49.310;8.646;2023-06-01T00:40:55;2.38;;;1.42;;
49139;SDS011;34959;49.310;8.646;2023-06-01T00:43:21;2.92;;;1.08;;
49139;SDS011;34959;49.310;8.646;2023-06-01T00:45:46;2.63;;;1.17;;
49139;SDS011;34959;49.310;8.646;2023-06-01T00:48:12;2.05;;;1.38;;
49139;SDS011;34959;49.310;8.646;2023-06-01T00:50:39;4.47;;;1.20;;
49139;SDS011;34959;49.310;8.646;2023-06-01T00:53:10;1.83;;;1.00;;
49139;SDS011;34959;49.310;8.646;2023-06-01T00:55:37;2.85;;;1.30;;
49139;SDS011;34959;49.310;8.646;2023-06-01T00:58:02;2.28;;;1.17;;
49139;SDS011;34959;49.310;8.646;2023-06-01T01:00:28;1.80;;;1.13;;
49139;SDS011;34959;49.310;8.646;2023-06-01T01:02:54;2.17;;;1.17;;
49139;SDS011;34959;49.310;8.646;2023-06-01T01:05:22;2.58;;;1.20;;
49139;SDS011;34959;49.310;8.646;2023-06-01T01:12:59;2.60;;;1.40;;
49139;SDS011;34959;49.310;8.646;2023-06-01T01:15:29;3.35;;;1.48;;
49139;SDS011;34959;49.310;8.646;2023-06-01T01:18:02;2.70;;;1.48;;
49139;SDS011;34959;49.310;8.646;2023-06-01T01:20:29;1.70;;;1.10;;
49139;SDS011;34959;49.310;8.646;2023-06-01T01:23:10;2.10;;;1.30;;
49139;SDS011;34959;49.310;8.646;2023-06-01T01:28:42;1.90;;;1.20;;
49139;SDS011;34959;49.310;8.646;2023-06-01T01:31:09;1.90;;;1.23;;
49139;SDS011;34959;49.310;8.646;2023-06-01T01:33:36;1.83;;;1.20;;
49139;SDS011;34959;49.310;8.646;2023-06-01T01:36:02;2.30;;;1.33;;
49139;SDS011;34959;49.310;8.646;2023-06-01T01:38:28;2.58;;;1.48;;
49139;SDS011;34959;49.310;8.646;2023-06-01T01:40:54;6.13;;;2.35;;
49139;SDS011;34959;49.310;8.646;2023-06-01T01:43:20;2.28;;;1.40;;
49139;SDS011;34959;49.310;8.646;2023-06-01T01:45:47;2.20;;;1.30;;
49139;SDS011;34959;49.310;8.646;2023-06-01T01:48:54;2.65;;;1.40;;
49139;SDS011;34959;49.310;8.646;2023-06-01T01:51:23;2.22;;;1.30;;
49139;SDS011;34959;49.310;8.646;2023-06-01T01:53:52;2.17;;;1.50;;
49139;SDS011;34959;49.310;8.646;2023-06-01T01:56:19;1.55;;;1.15;;
49139;SDS011;34959;49.310;8.646;2023-06-01T01:58:45;2.10;;;1.30;;
49139;SDS011;34959;49.310;8.646;2023-06-01T02:01:10;2.85;;;1.40;;
49139;SDS011;34959;49.310;8.646;2023-06-01T02:03:37;1.80;;;1.20;;
49139;SDS011;34959;49.310;8.646;2023-06-01T02:06:02;3.97;;;1.40;;
49139;SDS011;34959;49.310;8.646;2023-06-01T02:08:28;2.83;;;1.33;;
49139;SDS011;34959;49.310;8.646;2023-06-01T02:10:53;2.80;;;1.40;;
49139;SDS011;34959;49.310;8.646;2023-06-01T02:13:18;2.35;;;1.20;;
49139;SDS011;34959;49.310;8.646;2023-06-01T02:15:44;2.25;;;1.42;;
49139;SDS011;34959;49.310;8.646;2023-06-01T02:18:09;2.00;;;1.30;;
49139;SDS011;34959;49.310;8.646;2023-06-01T02:20:36;2.30;;;1.40;;
49139;SDS011;34959;49.310;8.646;2023-06-01T02:23:01;3.05;;;1.30;;
49139;SDS011;34959;49.310;8.646;2023-06-01T02:25:26;2.55;;;1.50;;
49139;SDS011;34959;49.310;8.646;2023-06-01T02:27:52;2.20;;;1.20;;
49139;SDS011;34959;49.310;8.646;2023-06-01T02:30:17;2.80;;;1.20;;
49139;SDS011;34959;49.310;8.646;2023-06-01T02:32:43;3.53;;;1.35;;
49139;SDS011;34959;49.310;8.646;2023-06-01T02:35:10;3.83;;;1.25;;
49139;SDS011;34959;49.310;8.646;2023-06-01T02:37:35;1.50;;;1.23;;
49139;SDS011;34959;49.310;8.646;2023-06-01T02:40:01;2.17;;;1.30;;
49139;SDS011;34959;49.310;8.646;2023-06-01T02:42:26;3.38;;;1.38;;
49139;SDS011;34959;49.310;8.646;2023-06-01T02:44:52;1.92;;;1.13;;
49139;SDS011;34959;49.310;8.646;2023-06-01T02:47:17;2.22;;;1.30;;
49139;SDS011;34959;49.310;8.646;2023-06-01T02:49:42;1.48;;;1.13;;
49139;SDS011;34959;49.310;8.646;2023-06-01T02:52:08;1.65;;;1.08;;
49139;SDS011;34959;49.310;8.646;2023-06-01T02:54:33;2.03;;;1.20;;
49139;SDS011;34959;49.310;8.646;2023-06-01T02:56:58;2.38;;;1.25;;
49139;SDS011;34959;49.310;8.646;2023-06-01T02:59:24;1.63;;;1.23;;
49139;SDS011;34959;49.310;8.646;2023-06-01T03:01:50;1.38;;;1.00;;
49139;SDS011;34959;49.310;8.646;2023-06-01T03:04:16;3.75;;;1.65;;
49139;SDS011;34959;49.310;8.646;2023-06-01T03:06:42;1.55;;;1.15;;
49139;SDS011;34959;49.310;8.646;2023-06-01T03:09:08;2.15;;;1.15;;
49139;SDS011;34959;49.310;8.646;2023-06-01T03:11:41;2.55;;;1.52;;
49139;SDS011;34959;49.310;8.646;2023-06-01T03:14:07;1.92;;;1.20;;
49139;SDS011;34959;49.310;8.646;2023-06-01T03:16:33;3.00;;;1.42;;
49139;SDS011;34959;49.310;8.646;2023-06-01T03:18:58;3.15;;;1.60;;
49139;SDS011;34959;49.310;8.646;2023-06-01T03:21:23;3.30;;;1.20;;
49139;SDS011;34959;49.310;8.646;2023-06-01T03:23:49;2.35;;;1.23;;
49139;SDS011;34959;49.310;8.646;2023-06-01T03:26:15;2.30;;;1.10;;
49139;SDS011;34959;49.310;8.646;2023-06-01T03:28:42;1.58;;;1.02;;
49139;SDS011;34959;49.310;8.646;2023-06-01T03:31:08;1.67;;;1.08;;
49139;SDS011;34959;49.310;8.646;2023-06-01T03:33:36;1.70;;;1.00;;
49139;SDS011;34959;49.310;8.646;2023-06-01T03:36:02;1.30;;;1.00;;
49139;SDS011;34959;49.310;8.646;2023-06-01T03:38:28;2.17;;;1.10;;
49139;SDS011;34959;49.310;8.646;2023-06-01T03:40:54;2.42;;;1.08;;
49139;SDS011;34959;49.310;8.646;2023-06-01T03:43:19;1.75;;;1.10;;
49139;SDS011;34959;49.310;8.646;2023-06-01T03:45:44;1.92;;;1.10;;
49139;SDS011;34959;49.310;8.646;2023-06-01T03:48:10;2.13;;;1.42;;
49139;SDS011;34959;49.310;8.646;2023-06-01T03:50:35;1.50;;;1.00;;
49139;SDS011;34959;49.310;8.646;2023-06-01T03:53:00;2.78;;;1.20;;
49139;SDS011;34959;49.310;8.646;2023-06-01T03:55:26;1.92;;;1.08;;
49139;SDS011;34959;49.310;8.646;2023-06-01T03:57:52;1.95;;;1.02;;
49139;SDS011;34959;49.310;8.646;2023-06-01T04:00:17;1.98;;;1.10;;
49139;SDS011;34959;49.310;8.646;2023-06-01T04:02:50;2.03;;;1.05;;
49139;SDS011;34959;49.310;8.646;2023-06-01T04:05:17;2.22;;;1.30;;
49139;SDS011;34959;49.310;8.646;2023-06-01T04:07:44;3.03;;;1.42;;
49139;SDS011;34959;49.310;8.646;2023-06-01T04:10:10;1.42;;;1.00;;
49139;SDS011;34959;49.310;8.646;2023-06-01T04:12:38;2.17;;;1.40;;
49139;SDS011;34959;49.310;8.646;2023-06-01T04:15:04;3.38;;;1.27;;
49139;SDS011;34959;49.310;8.646;2023-06-01T04:17:30;2.75;;;1.20;;
49139;SDS011;34959;49.310;8.646;2023-06-01T04:19:56;1.27;;;0.95;;
49139;SDS011;34959;49.310;8.646;2023-06-01T04:22:21;2.28;;;1.25;;
49139;SDS011;34959;49.310;8.646;2023-06-01T04:24:46;1.95;;;1.10;;
49139;SDS011;34959;49.310;8.646;2023-06-01T04:27:12;1.70;;;1.02;;
49139;SDS011;34959;49.310;8.646;2023-06-01T04:29:42;1.50;;;1.00;;
49139;SDS011;34959;49.310;8.646;2023-06-01T04:32:09;1.75;;;1.05;;
49139;SDS011;34959;49.310;8.646;2023-06-01T04:34:37;1.58;;;1.00;;
49139;SDS011;34959;49.310;8.646;2023-06-01T04:37:03;1.92;;;1.08;;
49139;SDS011;34959;49.310;8.646;2023-06-01T04:39:29;1.88;;;1.05;;
49139;SDS011;34959;49.310;8.646;2023-06-01T04:41:55;1.80;;;1.13;;
49139;SDS011;34959;49.310;8.646;2023-06-01T04:44:22;2.33;;;1.20;;
49139;SDS011;34959;49.310;8.646;2023-06-01T04:46:47;1.42;;;0.90;;
49139;SDS011;34959;49.310;8.646;2023-06-01T04:49:15;2.65;;;1.20;;
49139;SDS011;34959;49.310;8.646;2023-06-01T04:51:40;1.58;;;1.05;;
49139;SDS011;34959;49.310;8.646;2023-06-01T04:54:06;2.17;;;1.25;;
49139;SDS011;34959;49.310;8.646;2023-06-01T04:56:32;2.08;;;1.10;;
49139;SDS011;34959;49.310;8.646;2023-06-01T04:58:57;0.90;;;0.70;;
49139;SDS011;34959;49.310;8.646;2023-06-01T05:01:23;2.35;;;1.08;;
49139;SDS011;34959;49.310;8.646;2023-06-01T05:03:54;2.05;;;1.10;;
49139;SDS011;34959;49.310;8.646;2023-06-01T05:06:20;1.83;;;0.90;;
49139;SDS011;34959;49.310;8.646;2023-06-01T05:08:46;2.22;;;1.20;;
49139;SDS011;34959;49.310;8.646;2023-06-01T05:11:12;1.55;;;1.10;;
49139;SDS011;34959;49.310;8.646;2023-06-01T05:13:38;2.08;;;1.10;;
49139;SDS011;34959;49.310;8.646;2023-06-01T05:16:05;2.33;;;0.90;;
49139;SDS011;34959;49.310;8.646;2023-06-01T05:18:34;2.45;;;1.42;;
49139;SDS011;34959;49.310;8.646;2023-06-01T05:21:00;1.88;;;1.00;;
49139;SDS011;34959;49.310;8.646;2023-06-01T05:23:25;1.50;;;0.93;;
49139;SDS011;34959;49.310;8.646;2023-06-01T05:25:52;7.00;;;1.13;;
49139;SDS011;34959;49.310;8.646;2023-06-01T05:28:19;1.50;;;0.80;;
49139;SDS011;34959;49.310;8.646;2023-06-01T05:30:45;2.67;;;1.05;;
49139;SDS011;34959;49.310;8.646;2023-06-01T05:33:11;3.20;;;1.33;;
49139;SDS011;34959;49.310;8.646;2023-06-01T05:35:36;3.03;;;1.27;;
49139;SDS011;34959;49.310;8.646;2023-06-01T05:38:02;1.73;;;1.00;;
49139;SDS011;34959;49.310;8.646;2023-06-01T05:40:28;3.47;;;1.20;;
49139;SDS011;34959;49.310;8.646;2023-06-01T05:42:53;2.10;;;1.20;;
49139;SDS011;34959;49.310;8.646;2023-06-01T05:45:19;3.63;;;1.25;;
49139;SDS011;34959;49.310;8.646;2023-06-01T05:47:45;1.55;;;1.10;;
49139;SDS011;34959;49.310;8.646;2023-06-01T05:50:10;2.35;;;1.08;;
49139;SDS011;34959;49.310;8.646;2023-06-01T05:52:36;2.03;;;1.02;;
49139;SDS011;34959;49.310;8.646;2023-06-01T05:55:01;2.95;;;1.27;;
49139;SDS011;34959;49.310;8.646;2023-06-01T05:57:27;1.40;;;0.88;;
49139;SDS011;34959;49.310;8.646;2023-06-01T05:59:52;1.63;;;1.08;;
49139;SDS011;34959;49.310;8.646;2023-06-01T06:02:18;3.45;;;1.45;;
49139;SDS011;34959;49.310;8.646;2023-06-01T06:04:44;1.20;;;0.90;;
49139;SDS011;34959;49.310;8.646;2023-06-01T06:07:10;1.55;;;0.88;;
49139;SDS011;34959;49.310;8.646;2023-06-01T06:09:35;1.92;;;0.80;;
49139;SDS011;34959;49.310;8.646;2023-06-01T06:12:01;2.35;;;1.10;;
49139;SDS011;34959;49.310;8.646;2023-06-01T06:14:26;1.35;;;0.95;;
49139;SDS011;34959;49.310;8.646;2023-06-01T06:16:52;2.65;;;1.20;;
49139;SDS011;34959;49.310;8.646;2023-06-01T06:19:17;1.52;;;1.15;;
49139;SDS011;34959;49.310;8.646;2023-06-01T06:21:43;1.45;;;1.20;;
49139;SDS011;34959;49.310;8.646;2023-06-01T06:24:08;2.72;;;1.27;;
49139;SDS011;34959;49.310;8.646;2023-06-01T06:26:34;2.33;;;1.10;;
49139;SDS011;34959;49.310;8.646;2023-06-01T06:28:59;1.77;;;1.10;;
49139;SDS011;34959;49.310;8.646;2023-06-01T06:31:25;1.90;;;1.20;;
49139;SDS011;34959;49.310;8.646;2023-06-01T06:33:51;2.60;;;1.08;;
49139;SDS011;34959;49.310;8.646;2023-06-01T06:36:16;2.55;;;1.10;;
49139;SDS011;34959;49.310;8.646;2023-06-01T06:38:42;1.98;;;1.30;;
49139;SDS011;34959;49.310;8.646;2023-06-01T06:41:07;1.77;;;1.13;;
49139;SDS011;34959;49.310;8.646;2023-06-01T06:43:33;1.73;;;0.93;;
49139;SDS011;34959;49.310;8.646;2023-06-01T06:45:58;1.23;;;0.88;;
49139;SDS011;34959;49.310;8.646;2023-06-01T06:48:24;2.38;;;1.10;;
49139;SDS011;34959;49.310;8.646;2023-06-01T06:50:49;1.23;;;0.90;;
49139;SDS011;34959;49.310;8.646;2023-06-01T06:53:15;2.97;;;0.95;;
49139;SDS011;34959;49.310;8.646;2023-06-01T06:55:40;4.00;;;1.20;;
49139;SDS011;34959;49.310;8.646;2023-06-01T06:58:08;3.47;;;1.30;;
49139;SDS011;34959;49.310;8.646;2023-06-01T07:00:35;4.93;;;1.10;;
49139;SDS011;34959;49.310;8.646;2023-06-01T07:03:01;5.47;;;0.80;;
49139;SDS011;34959;49.310;8.646;2023-06-01T07:05:26;4.70;;;1.10;;
49139;SDS011;34959;49.310;8.646;2023-06-01T07:07:52;1.85;;;1.00;;
49139;SDS011;34959;49.310;8.646;2023-06-01T07:10:17;2.17;;;1.38;;
49139;SDS011;34959;49.310;8.646;2023-06-01T07:12:43;2.65;;;0.95;;
49139;SDS011;34959;49.310;8.646;2023-06-01T07:15:08;4.53;;;1.17;;
49139;SDS011;34959;49.310;8.646;2023-06-01T07:17:34;4.10;;;1.40;;
49139;SDS011;34959;49.310;8.646;2023-06-01T07:20:03;2.78;;;1.30;;
49139;SDS011;34959;49.310;8.646;2023-06-01T07:22:32;4.38;;;2.22;;
49139;SDS011;34959;49.310;8.646;2023-06-01T07:24:58;6.18;;;1.77;;
49139;SDS011;34959;49.310;8.646;2023-06-01T07:27:24;4.55;;;2.03;;
49139;SDS011;34959;49.310;8.646;2023-06-01T07:29:49;5.90;;;2.35;;
49139;SDS011;34959;49.310;8.646;2023-06-01T07:32:20;3.63;;;1.85;;
49139;SDS011;34959;49.310;8.646;2023-06-01T07:34:49;5.78;;;1.60;;
49139;SDS011;34959;49.310;8.646;2023-06-01T07:37:14;5.32;;;2.40;;
49139;SDS011;34959;49.310;8.646;2023-06-01T07:39:40;6.78;;;2.08;;
49139;SDS011;34959;49.310;8.646;2023-06-01T07:42:06;4.25;;;1.95;;
49139;SDS011;34959;49.310;8.646;2023-06-01T07:44:31;5.18;;;1.90;;
49139;SDS011;34959;49.310;8.646;2023-06-01T07:46:56;6.28;;;2.30;;
49139;SDS011;34959;49.310;8.646;2023-06-01T07:49:22;4.45;;;1.98;;
49139;SDS011;34959;49.310;8.646;2023-06-01T07:51:47;5.78;;;2.20;;
49139;SDS011;34959;49.310;8.646;2023-06-01T07:54:13;4.95;;;2.15;;
49139;SDS011;34959;49.310;8.646;2023-06-01T07:56:39;3.55;;;1.70;;
49139;SDS011;34959;49.310;8.646;2023-06-01T07:59:04;4.88;;;2.08;;
49139;SDS011;34959;49.310;8.646;2023-06-01T08:01:30;5.07;;;2.30;;
49139;SDS011;34959;49.310;8.646;2023-06-01T08:03:55;4.10;;;2.05;;
49139;SDS011;34959;49.310;8.646;2023-06-01T08:06:21;5.00;;;1.90;;
49139;SDS011;34959;49.310;8.646;2023-06-01T08:08:48;4.72;;;2.45;;
49139;SDS011;34959;49.310;8.646;2023-06-01T08:11:14;6.82;;;2.17;;
49139;SDS011;34959;49.310;8.646;2023-06-01T08:13:40;5.63;;;2.13;;
49139;SDS011;34959;49.310;8.646;2023-06-01T08:16:06;4.68;;;2.08;;
49139;SDS011;34959;49.310;8.646;2023-06-01T08:18:32;7.85;;;2.28;;
49139;SDS011;34959;49.310;8.646;2023-06-01T08:20:57;4.22;;;2.03;;
49139;SDS011;34959;49.310;8.646;2023-06-01T08:23:25;5.03;;;2.08;;
49139;SDS011;34959;49.310;8.646;2023-06-01T08:25:51;7.70;;;1.98;;
49139;SDS011;34959;49.310;8.646;2023-06-01T08:28:17;7.18;;;2.05;;
49139;SDS011;34959;49.310;8.646;2023-06-01T08:30:42;4.22;;;2.03;;
49139;SDS011;34959;49.310;8.646;2023-06-01T08:33:07;3.72;;;1.80;;
49139;SDS011;34959;49.310;8.646;2023-06-01T08:35:33;6.07;;;2.00;;
49139;SDS011;34959;49.310;8.646;2023-06-01T08:38:00;2.78;;;1.92;;
49139;SDS011;34959;49.310;8.646;2023-06-01T08:40:25;3.80;;;1.80;;
49139;SDS011;34959;49.310;8.646;2023-06-01T08:42:59;5.65;;;2.00;;
49139;SDS011;34959;49.310;8.646;2023-06-01T08:45:44;3.17;;;1.70;;
49139;SDS011;34959;49.310;8.646;2023-06-01T08:48:13;5.10;;;2.33;;
49139;SDS011;34959;49.310;8.646;2023-06-01T08:50:40;2.65;;;1.73;;
49139;SDS011;34959;49.310;8.646;2023-06-01T08:53:06;3.67;;;2.10;;
49139;SDS011;34959;49.310;8.646;2023-06-01T08:55:31;2.78;;;1.75;;
49139;SDS011;34959;49.310;8.646;2023-06-01T08:57:57;3.90;;;2.10;;
49139;SDS011;34959;49.310;8.646;2023-06-01T09:00:22;5.20;;;2.13;;
49139;SDS011;34959;49.310;8.646;2023-06-01T09:02:49;4.00;;;2.35;;
49139;SDS011;34959;49.310;8.646;2023-06-01T09:05:14;3.83;;;1.90;;
49139;SDS011;34959;49.310;8.646;2023-06-01T09:07:40;4.60;;;2.03;;
49139;SDS011;34959;49.310;8.646;2023-06-01T09:10:06;4.43;;;2.00;;
49139;SDS011;34959;49.310;8.646;2023-06-01T09:12:31;4.85;;;2.00;;
49139;SDS011;34959;49.310;8.646;2023-06-01T09:15:19;2.92;;;1.65;;
49139;SDS011;34959;49.310;8.646;2023-06-01T09:17:48;3.83;;;1.67;;
49139;SDS011;34959;49.310;8.646;2023-06-01T09:20:23;4.63;;;2.00;;
49139;SDS011;34959;49.310;8.646;2023-06-01T09:22:50;3.92;;;1.70;;
49139;SDS011;34959;49.310;8.646;2023-06-01T09:25:16;3.25;;;1.77;;
49139;SDS011;34959;49.310;8.646;2023-06-01T09:27:43;3.38;;;1.80;;
49139;SDS011;34959;49.310;8.646;2023-06-01T09:32:40;3.95;;;2.00;;
49139;SDS011;34959;49.310;8.646;2023-06-01T09:35:06;3.53;;;1.95;;
49139;SDS011;34959;49.310;8.646;2023-06-01T09:37:33;2.70;;;1.63;;
49139;SDS011;34959;49.310;8.646;2023-06-01T09:40:02;2.90;;;1.90;;
49139;SDS011;34959;49.310;8.646;2023-06-01T09:42:41;3.70;;;1.98;;
49139;SDS011;34959;49.310;8.646;2023-06-01T09:45:14;3.40;;;1.98;;
49139;SDS011;34959;49.310;8.646;2023-06-01T09:47:42;2.90;;;1.70;;
49139;SDS011;34959;49.310;8.646;2023-06-01T09:50:08;2.83;;;1.88;;
49139;SDS011;34959;49.310;8.646;2023-06-01T09:52:34;3.17;;;1.88;;
49139;SDS011;34959;49.310;8.646;2023-06-01T09:55:04;3.58;;;2.10;;
49139;SDS011;34959;49.310;8.646;2023-06-01T09:57:31;2.50;;;1.65;;
49139;SDS011;34959;49.310;8.646;2023-06-01T09:59:56;4.00;;;2.00;;
49139;SDS011;34959;49.310;8.646;2023-06-01T10:02:23;2.03;;;1.50;;
49139;SDS011;34959;49.310;8.646;2023-06-01T10:04:49;5.18;;;2.25;;
49139;SDS011;34959;49.310;8.646;2023-06-01T10:07:17;2.60;;;1.55;;
49139;SDS011;34959;49.310;8.646;2023-06-01T10:09:44;2.80;;;1.80;;
49139;SDS011;34959;49.310;8.646;2023-06-01T10:12:11;3.22;;;1.70;;
49139;SDS011;34959;49.310;8.646;2023-06-01T10:14:37;3.83;;;1.70;;
49139;SDS011;34959;49.310;8.646;2023-06-01T10:17:05;4.68;;;1.77;;
49139;SDS011;34959;49.310;8.646;2023-06-01T10:19:32;4.35;;;1.90;;
49139;SDS011;34959;49.310;8.646;2023-06-01T10:21:58;3.65;;;1.67;;
49139;SDS011;34959;49.310;8.646;2023-06-01T10:24:25;3.55;;;1.75;;
49139;SDS011;34959;49.310;8.646;2023-06-01T10:29:22;2.90;;;1.80;;
49139;SDS011;34959;49.310;8.646;2023-06-01T10:31:48;3.60;;;1.75;;
49139;SDS011;34959;49.310;8.646;2023-06-01T10:34:14;4.13;;;2.15;;
49139;SDS011;34959;49.310;8.646;2023-06-01T10:39:21;4.47;;;1.40;;
49139;SDS011;34959;49.310;8.646;2023-06-01T10:41:47;2.38;;;1.58;;
49139;SDS011;34959;49.310;8.646;2023-06-01T10:44:33;3.22;;;1.63;;
49139;SDS011;34959;49.310;8.646;2023-06-01T10:47:43;3.85;;;2.08;;
49139;SDS011;34959;49.310;8.646;2023-06-01T10:52:24;4.10;;;1.52;;
49139;SDS011;34959;49.310;8.646;2023-06-01T10:54:51;2.95;;;1.27;;
49139;SDS011;34959;49.310;8.646;2023-06-01T10:57:17;4.70;;;1.75;;
49139;SDS011;34959;49.310;8.646;2023-06-01T10:59:44;5.18;;;2.10;;
49139;SDS011;34959;49.310;8.646;2023-06-01T11:02:09;3.97;;;1.70;;
49139;SDS011;34959;49.310;8.646;2023-06-01T11:04:35;3.60;;;1.67;;
49139;SDS011;34959;49.310;8.646;2023-06-01T11:07:46;2.97;;;1.30;;
49139;SDS011;34959;49.310;8.646;2023-06-01T11:10:03;3.35;;;1.50;;
49139;SDS011;34959;49.310;8.646;2023-06-01T11:13:07;3.78;;;1.42;;
49139;SDS011;34959;49.310;8.646;2023-06-01T11:15:36;2.92;;;1.70;;
49139;SDS011;34959;49.310;8.646;2023-06-01T11:21:10;4.32;;;1.63;;
49139;SDS011;34959;49.310;8.646;2023-06-01T11:23:38;3.28;;;1.70;;
49139;SDS011;34959;49.310;8.646;2023-06-01T11:26:05;2.33;;;1.35;;
49139;SDS011;34959;49.310;8.646;2023-06-01T11:28:31;5.60;;;1.52;;
49139;SDS011;34959;49.310;8.646;2023-06-01T11:30:57;2.90;;;1.50;;
49139;SDS011;34959;49.310;8.646;2023-06-01T11:33:25;3.55;;;1.55;;
49139;SDS011;34959;49.310;8.646;2023-06-01T11:35:59;6.22;;;1.67;;
49139;SDS011;34959;49.310;8.646;2023-06-01T11:38:37;4.70;;;1.98;;
49139;SDS011;34959;49.310;8.646;2023-06-01T11:41:03;2.45;;;1.60;;
49139;SDS011;34959;49.310;8.646;2023-06-01T11:43:29;7.05;;;1.88;;
49139;SDS011;34959;49.310;8.646;2023-06-01T11:46:02;3.63;;;1.60;;
49139;SDS011;34959;49.310;8.646;2023-06-01T11:48:28;3.20;;;1.80;;
49139;SDS011;34959;49.310;8.646;2023-06-01T11:50:54;2.67;;;1.70;;
49139;SDS011;34959;49.310;8.646;2023-06-01T11:53:23;3.63;;;1.80;;
49139;SDS011;34959;49.310;8.646;2023-06-01T11:55:49;4.65;;;1.58;;
49139;SDS011;34959;49.310;8.646;2023-06-01T11:58:22;2.90;;;1.75;;
49139;SDS011;34959;49.310;8.646;2023-06-01T12:00:47;3.22;;;1.50;;
49139;SDS011;34959;49.310;8.646;2023-06-01T12:03:13;3.05;;;1.45;;
49139;SDS011;34959;49.310;8.646;2023-06-01T12:05:39;2.55;;;1.52;;
49139;SDS011;34959;49.310;8.646;2023-06-01T12:08:08;5.90;;;1.60;;
49139;SDS011;34959;49.310;8.646;2023-06-01T12:10:38;5.00;;;1.73;;
49139;SDS011;34959;49.310;8.646;2023-06-01T12:13:04;3.08;;;1.60;;
49139;SDS011;34959;49.310;8.646;2023-06-01T12:15:29;3.17;;;1.55;;
49139;SDS011;34959;49.310;8.646;2023-06-01T12:17:55;4.35;;;1.77;;
49139;SDS011;34959;49.310;8.646;2023-06-01T12:22:52;5.32;;;1.80;;
49139;SDS011;34959;49.310;8.646;2023-06-01T12:25:20;3.03;;;1.50;;
49139;SDS011;34959;49.310;8.646;2023-06-01T12:28:03;4.00;;;1.73;;
49139;SDS011;34959;49.310;8.646;2023-06-01T12:30:29;3.72;;;1.48;;
49139;SDS011;34959;49.310;8.646;2023-06-01T12:32:55;3.83;;;1.77;;
49139;SDS011;34959;49.310;8.646;2023-06-01T12:35:21;3.50;;;1.38;;
49139;SDS011;34959;49.310;8.646;2023-06-01T12:40:34;2.63;;;1.50;;
49139;SDS011;34959;49.310;8.646;2023-06-01T12:43:00;2.53;;;1.50;;
49139;SDS011;34959;49.310;8.646;2023-06-01T12:45:34;4.60;;;1.50;;
49139;SDS011;34959;49.310;8.646;2023-06-01T12:48:01;2.85;;;1.42;;
49139;SDS011;34959;49.310;8.646;2023-06-01T12:50:26;3.13;;;1.35;;
49139;SDS011;34959;49.310;8.646;2023-06-01T12:52:52;3.45;;;1.35;;
49139;SDS011;34959;49.310;8.646;2023-06-01T12:55:17;2.72;;;1.45;;
49139;SDS011;34959;49.310;8.646;2023-06-01T12:57:44;2.30;;;1.27;;
49139;SDS011;34959;49.310;8.646;2023-06-01T13:00:18;2.97;;;1.52;;
49139;SDS011;34959;49.310;8.646;2023-06-01T13:02:44;2.28;;;1.58;;
49139;SDS011;34959;49.310;8.646;2023-06-01T13:05:13;1.98;;;1.20;;
49139;SDS011;34959;49.310;8.646;2023-06-01T13:07:42;2.53;;;1.30;;
49139;SDS011;34959;49.310;8.646;2023-06-01T13:10:10;3.08;;;1.40;;
49139;SDS011;34959;49.310;8.646;2023-06-01T13:12:36;1.75;;;1.25;;
49139;SDS011;34959;49.310;8.646;2023-06-01T13:15:02;2.20;;;1.48;;
49139;SDS011;34959;49.310;8.646;2023-06-01T13:17:28;2.33;;;1.50;;
49139;SDS011;34959;49.310;8.646;2023-06-01T13:19:53;2.22;;;1.48;;
49139;SDS011;34959;49.310;8.646;2023-06-01T13:22:19;4.35;;;1.60;;
49139;SDS011;34959;49.310;8.646;2023-06-01T13:24:46;2.47;;;1.42;;
49139;SDS011;34959;49.310;8.646;2023-06-01T13:27:12;2.95;;;1.38;;
49139;SDS011;34959;49.310;8.646;2023-06-01T13:29:37;2.42;;;1.23;;
49139;SDS011;34959;49.310;8.646;2023-06-01T13:32:02;3.33;;;1.40;;
49139;SDS011;34959;49.310;8.646;2023-06-01T13:34:28;2.20;;;1.40;;
49139;SDS011;34959;49.310;8.646;2023-06-01T13:36:53;2.88;;;1.52;;
49139;SDS011;34959;49.310;8.646;2023-06-01T13:39:19;3.72;;;2.03;;
49139;SDS011;34959;49.310;8.646;2023-06-01T13:41:44;3.00;;;1.17;;
49139;SDS011;34959;49.310;8.646;2023-06-01T13:44:10;2.65;;;1.40;;
49139;SDS011;34959;49.310;8.646;2023-06-01T13:46:35;2.22;;;1.50;;
49139;SDS011;34959;49.310;8.646;2023-06-01T13:49:01;2.22;;;1.23;;
49139;SDS011;34959;49.310;8.646;2023-06-01T13:51:26;2.90;;;1.63;;
49139;SDS011;34959;49.310;8.646;2023-06-01T13:53:53;2.00;;;1.20;;
49139;SDS011;34959;49.310;8.646;2023-06-01T13:56:18;2.92;;;1.50;;
49139;SDS011;34959;49.310;8.646;2023-06-01T13:58:46;2.20;;;1.45;;
49139;SDS011;34959;49.310;8.646;2023-06-01T14:01:11;2.55;;;1.58;;
49139;SDS011;34959;49.310;8.646;2023-06-01T14:03:37;2.75;;;1.48;;
49139;SDS011;34959;49.310;8.646;2023-06-01T14:06:02;2.63;;;1.33;;
49139;SDS011;34959;49.310;8.646;2023-06-01T14:08:32;1.67;;;1.50;;
49139;SDS011;34959;49.310;8.646;2023-06-01T14:10:57;2.55;;;1.38;;
49139;SDS011;34959;49.310;8.646;2023-06-01T14:13:23;2.83;;;1.20;;
49139;SDS011;34959;49.310;8.646;2023-06-01T14:15:48;1.65;;;1.30;;
49139;SDS011;34959;49.310;8.646;2023-06-01T14:18:13;2.92;;;1.65;;
49139;SDS011;34959;49.310;8.646;2023-06-01T14:20:39;2.60;;;1.30;;
49139;SDS011;34959;49.310;8.646;2023-06-01T14:23:05;1.65;;;1.20;;
49139;SDS011;34959;49.310;8.646;2023-06-01T14:25:32;2.08;;;1.17;;
49139;SDS011;34959;49.310;8.646;2023-06-01T14:27:58;1.90;;;1.30;;
49139;SDS011;34959;49.310;8.646;2023-06-01T14:30:23;1.70;;;1.20;;
49139;SDS011;34959;49.310;8.646;2023-06-01T14:32:51;1.83;;;1.30;;
49139;SDS011;34959;49.310;8.646;2023-06-01T14:35:16;2.20;;;1.48;;
49139;SDS011;34959;49.310;8.646;2023-06-01T14:37:43;2.22;;;1.33;;
49139;SDS011;34959;49.310;8.646;2023-06-01T14:40:09;2.35;;;1.40;;
49139;SDS011;34959;49.310;8.646;2023-06-01T14:42:36;1.80;;;1.25;;
49139;SDS011;34959;49.310;8.646;2023-06-01T14:45:02;1.70;;;1.17;;
49139;SDS011;34959;49.310;8.646;2023-06-01T14:47:28;1.77;;;1.33;;
49139;SDS011;34959;49.310;8.646;2023-06-01T14:49:53;2.17;;;1.40;;
49139;SDS011;34959;49.310;8.646;2023-06-01T14:52:19;2.05;;;1.17;;
49139;SDS011;34959;49.310;8.646;2023-06-01T14:54:44;1.75;;;1.15;;
49139;SDS011;34959;49.310;8.646;2023-06-01T14:57:10;1.90;;;1.35;;
49139;SDS011;34959;49.310;8.646;2023-06-01T14:59:35;2.20;;;1.30;;
49139;SDS011;34959;49.310;8.646;2023-06-01T15:02:02;2.03;;;1.33;;
49139;SDS011;34959;49.310;8.646;2023-06-01T15:04:28;2.47;;;1.42;;
49139;SDS011;34959;49.310;8.646;2023-06-01T15:06:54;1.88;;;1.30;;
49139;SDS011;34959;49.310;8.646;2023-06-01T15:09:20;2.00;;;1.20;;
49139;SDS011;34959;49.310;8.646;2023-06-01T15:11:45;2.17;;;1.27;;
49139;SDS011;34959;49.310;8.646;2023-06-01T15:14:11;1.77;;;1.27;;